Windfall, Indiana
Current Conditions -  °F | °C
As of 7:35 AM on Monday 24 Nov 2014 (Local Time) from KOKK Reporting Station
Scattered Clouds Scattered Clouds  
Wind Chill: 54°   Ceiling: Unl
Heat Index: 54°   Visibility: 10mi
Dew Point: 48°   Wind: 16mph
Humidity: 82%   Direction: 230°SW
Pressure: 29.14"   Gusts: NA
Location:  40.36°N, 85.96°W
Report Text: KOKK 241235Z AUTO 23014KT 10SM FEW039 FEW046 SCT085 12/09 A2914 RMK AO1
Loading
Personal Weather Stations






























Interactive Weather Map New forecast layout! Learn more

10-Day Weather Forecast

Advertisements
Track Severe Weather on mobile